Weather forecast for Pikuj

Ukraine, 966 m
N48.830, E23.005


Sounding

Red line — air temperature ˚C.
Blue line — thermal bubble temperature ˚C.
Green line — dew point temperature ˚C.
Wind speed is in meters per second.

Table forecast

GFS 0.25˚ model

temp. wind gust humid. clouds prec. press. hpbl
Sat18 00:00 3 45.0 ne 1 2 86 100 0.4 1022 36
03:00 2 45.0 ne 1 2 89 100 0.9 1021 67
06:00 2 49.0 ne 1 2 94 100 1.2 1020 64
09:00 2 47.0 ne 1 1 95 100 2.1 1019 73
12:00 3 37.0 ne 1 1 94 100 1.0 1018 149
15:00 3 22.0 nne 0 1 95 100 2.1 1017 150
18:00 2 216.0 sw 0 0 97 100 1.1 1016 69
21:00 2 222.0 sw 1 1 98 100 1.5 1015 88
 
Sun19 00:00 2 215.0 sw 2 3 99 95 0.1 1015 199
03:00 2 198.0 ssw 2 4 98 95 0.3 1014 228
06:00 1 209.0 ssw 2 6 97 100 0.3 1012 572
09:00 -0 192.0 ssw 2 4 95 99 0.6 1012 312
12:00 0 191.0 s 3 4 91 97 0.1 1013 424
15:00 0 186.0 s 3 5 91 98 0.4 1012 472
18:00 0 191.0 s 3 6 94 100 0.8 1012 563
21:00 -1 201.0 ssw 2 4 99 99 2.4 1012 153
 
Mon20 00:00 -0 206.0 ssw 2 5 97 92 0.3 1012 343
03:00 -1 201.0 ssw 2 4 97 93 0.4 1012 336
06:00 -1 201.0 ssw 2 4 98 95 0.3 1012 263
09:00 -1 190.0 s 2 5 97 97 0.3 1013 331
12:00 -1 207.0 ssw 3 7 94 99 0.3 1014 539
15:00 0 241.0 wsw 3 6 88 98 0.8 1014 814
18:00 -1 221.0 sw 2 3 94 81 0.4 1015 99
21:00 -2 228.0 sw 2 3 95 68 0.6 1016 185
 
Tue21 00:00 -3 203.0 ssw 1 2 97 68 0.1 1016 42
03:00 -3 170.0 s 2 3 98 79 0.3 1016 138
06:00 -2 186.0 s 2 5 97 100 0.9 1014 281
09:00 -2 178.0 s 2 5 98 100 3.9 1013 253
12:00 -1 183.0 s 2 4 97 100 2.3 1012 277
15:00 0 177.0 s 1 2 97 99 3.1 1011 222
18:00 -1 161.0 sse 0 1 98 96 0.3 1012 23
21:00 -1 18.0 nne 1 1 95 91 0.4 1014 22
 
Wed22 00:00 -2 12.0 nne 2 2 95 90 0.0 1016 23
03:00 -2 16.0 nne 2 2 94 93 0.1 1018 32
06:00 -4 35.0 ne 2 2 92 69 0.0 1020 22
09:00 -5 44.0 ne 1 2 91 55 0.0 1021 21
12:00 1 90.0 e 0 1 79 65 0.0 1022 181
15:00 1 213.0 ssw 2 3 81 66 0.0 1022 346
18:00 -2 186.0 s 1 2 94 77 0.0 1022 25
21:00 -2 159.0 sse 1 2 88 88 0.0 1023 71
 

0.024 s